Nearby METAR Reports

 

KTEB - Teterboro, New Jersey, USA
Distance from station: ENE 2mi, 4km
Updated: 07/07/2020 7:51pm
Overcast
Overcast
 Wind from SSE
Wind: SSE 9 mph , 15 km/h
Temperature: 79°F , 26°C
Dew Point: 70°F , 21°C
Humidity: 74%
Barometer: 30.03 inHg , 1016.9 hPa
Clouds: Overcast
Visibility: 10 miles , 16 km
Cloud details: Partly cloudy 2000 ft
Mostly cloudy 4200 ft
Overcast 5500 ft
2020/07/07 23:51 KTEB 072351Z 15008KT 10SM SCT020 BKN042 OVC055 26/21 A3003 RMK AO2 SLP169 T02560211 10278 20256 56003
KNYC - Nyc/Central Park, New York, USA
Distance from station: SE 8mi, 13km
Updated: 07/07/2020 7:51pm
Overcast
Overcast
 Wind from SE
Wind: SE 8 mph , 13 km/h
Temperature: 77°F , 25°C
Dew Point: 70°F , 21°C
Humidity: 79%
Barometer: 30.08 inHg , 1018.6 hPa
Clouds: Overcast
Visibility: 9 miles , 14 km
Cloud details: Mostly cloudy 1700 ft
Mostly cloudy 2700 ft
Overcast 4300 ft
2020/07/07 23:51 KNYC 072351Z AUTO 13007KT 090V150 9SM BKN017 BKN027 OVC043 25/21 A3008 RMK AO2 SLP177 T02500211 10278 20250 55002
 
KCDW - Caldwell, New Jersey, USA
Distance from station: WNW 10mi, 17km
Updated: 07/07/2020 7:53pm
Mostly cloudy
Mostly cloudy
 Wind from SE
Wind: SE 10 mph , 17 km/h
Temperature: 81°F , 27°C
Heat Index: 85°F , 29°C
Dew Point: 70°F , 21°C
Humidity: 70%
Barometer: 30.04 inHg , 1017.3 hPa
Clouds: Mostly cloudy
Visibility: 10 miles , 16 km
Cloud details: Few Clouds 2000 ft
Mostly cloudy 3500 ft
2020/07/07 23:53 KCDW 072353Z AUTO 13009KT 10SM FEW020 BKN035 27/21 A3004 RMK AO2 SLP177 T02670211 10294 20267 58004
KLGA - Nyc/La Guardia, New York, USA
Distance from station: ESE 12mi, 19km
Updated: 07/07/2020 8:13pm
Mostly cloudy
Mostly cloudy
 Wind from ESE
Wind: ESE 9 mph , 15 km/h
Temperature: 79°F , 26°C
Dew Point: 70°F , 21°C
Humidity: 74%
Barometer: 30.05 inHg , 1017.6 hPa
Clouds: Mostly cloudy
Visibility: 10 miles , 16 km
Cloud details: Few Clouds 1800 ft
Mostly cloudy 4600 ft
Mostly cloudy 6000 ft
2020/07/08 00:13 KLGA 080013Z 12008KT 10SM FEW018 BKN046 BKN060 26/21 A3005 RMK AO2 T02610206
 
KEWR - Newark, New Jersey, USA
Distance from station: SSW 12mi, 20km
Updated: 07/07/2020 7:51pm
Mostly cloudy
Mostly cloudy
 Wind from ESE
Wind: ESE 9 mph , 15 km/h
Temperature: 79°F , 26°C
Dew Point: 72°F , 22°C
Humidity: 79%
Barometer: 30.05 inHg , 1017.6 hPa
Clouds: Mostly cloudy
Visibility: 10 miles , 16 km
Cloud details: Mostly cloudy 1700 ft
Mostly cloudy 4000 ft
Mostly cloudy 6000 ft
2020/07/07 23:51 KEWR 072351Z 12008KT 10SM BKN017 BKN040 BKN060 26/22 A3005 RMK AO2 SLP174 T02560222 10278 20256 56003
KMMU - Morristown Muni, New Jersey, USA
Distance from station: WSW 18mi, 29km
Updated: 07/07/2020 4:45pm
NOT Current
Partly cloudy
Partly cloudy
 Wind from SE
Wind: SE 13 mph , 20 km/h
Temperature: 82°F , 28°C
Heat Index: 87°F , 31°C
Dew Point: 73°F , 23°C
Humidity: 74%
Barometer: 30.06 inHg , 1017.9 hPa
Clouds: Partly cloudy
Visibility: 10 miles , 16 km
Cloud details: Partly cloudy 3500 ft
Partly cloudy 4500 ft
2020/07/07 20:45 KMMU 072045Z 14011KT 10SM SCT035 SCT045 28/23 A3006
 
KJFK - Nyc/Jfk Arpt, New York, USA
Distance from station: SE 23mi, 36km
Updated: 07/07/2020 7:51pm
Mostly cloudy
Mostly cloudy
 Wind from ESE
Wind: ESE 7 mph , 11 km/h
Temperature: 75°F , 24°C
Dew Point: 72°F , 22°C
Humidity: 89%
Barometer: 30.06 inHg , 1017.9 hPa
Clouds: Mostly cloudy
Visibility: 10 miles , 16 km
Cloud details: Mostly cloudy 800 ft
Mostly cloudy 2300 ft
Mostly cloudy 4500 ft
2020/07/07 23:51 KJFK 072351Z 11006KT 10SM BKN008 BKN023 BKN045 24/22 A3006 RMK AO2 SLP179 T02440222 10278 20239 56005
KHPN - White Plains, New York, USA
Distance from station: NE 25mi, 40km
Updated: 07/07/2020 7:56pm
Overcast
Overcast
 Wind from ESE
Wind: ESE 12 mph , 19 km/h
Temperature: 72°F , 22°C
Dew Point: 66°F , 19°C
Humidity: 83%
Barometer: 30.07 inHg , 1018.3 hPa
Clouds: Overcast
Visibility: 10 miles , 16 km
Cloud details: Overcast 600 ft
2020/07/07 23:56 KHPN 072356Z 12010KT 10SM OVC006 22/19 A3007 RMK AO2 SLP179 T02170194 10250 20217 56005
 
KSMQ - Somerville, New Jersey, USA
Distance from station: WSW 34mi, 55km
Updated: 07/07/2020 7:53pm
Partly cloudy
Partly cloudy
 Wind from calm
Wind: Calm
Temperature: 79°F , 26°C
Dew Point: 72°F , 22°C
Humidity: 79%
Barometer: 30.01 inHg , 1016.3 hPa
Clouds: Partly cloudy
Visibility: 10 miles , 16 km
Cloud details: Partly cloudy 3400 ft
2020/07/07 23:53 KSMQ 072353Z AUTO 00000KT 10SM SCT034 26/22 A3001 RMK AO2 SLP161 T02610222 10306 20261 56001
K12N - Andover, New Jersey, USA
Distance from station: WNW 36mi, 57km
Updated: 07/07/2020 7:54pm

 Wind from varies
Wind: varies 3 mph , 6 km/h
Temperature: 79°F , 26°C
Dew Point: 70°F , 21°C
Humidity: 74%
Barometer: 30.04 inHg , 1017.3 hPa
2020/07/07 23:54 K12N 072354Z AUTO VRB03KT 26/21 A3004 RMK AO1 SLP165 T02560211 10306 20256 56003
 
KFRG - Farmingdale, New York, USA
Distance from station: ESE 36mi, 58km
Updated: 07/07/2020 8:25pm
Overcast
Overcast
 Wind from ENE
Wind: ENE 5 mph , 7 km/h
Temperature: 75°F , 24°C
Dew Point: 72°F , 22°C
Humidity: 89%
Barometer: 30.07 inHg , 1018.3 hPa
Clouds: Overcast
Visibility: 8 miles , 13 km
Cloud details: Overcast 500 ft
2020/07/08 00:25 KFRG 080025Z AUTO 06004KT 8SM OVC005 24/22 A3007 RMK AO2 T02440217
KFWN - Sussex, New Jersey, USA
Distance from station: NW 37mi, 60km
Updated: 07/07/2020 7:53pm
Overcast
Overcast
 Wind from ESE
Wind: ESE 6 mph , 9 km/h
Temperature: 79°F , 26°C
Dew Point: 70°F , 21°C
Humidity: 74%
Barometer: 30.04 inHg , 1017.3 hPa
Clouds: Overcast
Visibility: 10 miles , 16 km
Cloud details: Partly cloudy 2500 ft
Overcast 3800 ft
2020/07/07 23:53 KFWN 072353Z AUTO 12005KT 10SM SCT025 OVC038 26/21 A3004 RMK AO2 SLP168 60000 T02610206 10289 20261 55002
 
KSWF - Newburgh/Stewart, New York, USA
Distance from station: 0 45mi, 72km
Updated: 07/07/2020 7:45pm
Partly cloudy
Partly cloudy
 Wind from SE
Wind: SE 12 mph , 19 km/h
Temperature: 75°F , 24°C
Dew Point: 70°F , 21°C
Humidity: 83%
Barometer: 30.06 inHg , 1017.9 hPa
Clouds: Partly cloudy
Visibility: 10 miles , 16 km
Cloud details: Partly cloudy 3000 ft
2020/07/07 23:45 KSWF 072345Z 14010KT 10SM SCT030 24/21 A3006
KMGJ - Montgomery, New York, USA
Distance from station: NNW 47mi, 75km
Updated: 07/07/2020 7:54pm
Mostly cloudy
Mostly cloudy
 Wind from S
Wind: S 8 mph , 13 km/h
Temperature: 75°F , 24°C
Dew Point: 68°F , 20°C
Humidity: 78%
Barometer: 30.05 inHg , 1017.6 hPa
Clouds: Mostly cloudy
Visibility: 10 miles , 16 km
Cloud details: Partly cloudy 2100 ft
Mostly cloudy 3900 ft
2020/07/07 23:54 KMGJ 072354Z AUTO 17007KT 10SM SCT021 BKN039 24/20 A3005 RMK AO2 SLP172 T02390200 10272 20239 55004
 
KBLM - Belmar/Farmdale, New Jersey, USA
Distance from station: S 47mi, 76km
Updated: 07/07/2020 7:56pm
Mostly cloudy
Mostly cloudy
 Wind from SE
Wind: SE 8 mph , 13 km/h
Temperature: 79°F , 26°C
Dew Point: 79°F , 26°C
Humidity: 100%
Barometer: 30.05 inHg , 1017.6 hPa
Clouds: Mostly cloudy
Visibility: 10 miles , 16 km
Cloud details: Few Clouds 1400 ft
Mostly cloudy 4800 ft
2020/07/07 23:56 KBLM 072356Z AUTO 14007KT 10SM FEW014 BKN048 26/26 A3005 RMK AO2 SLP176 T02560256 10272 20256 56003
KDXR - Danbury, Connecticut, USA
Distance from station: NE 47mi, 76km
Updated: 07/07/2020 8:22pm
Mist, Overcast
Mist, Overcast
 Wind from calm
Wind: Calm
Temperature: 66°F , 19°C
Dew Point: 66°F , 19°C
Humidity: 100%
Barometer: 30.10 inHg , 1019.3 hPa
Summary: Mist
Clouds: Overcast
Visibility: 3 miles , 5 km
Cloud details: Overcast 300 ft
2020/07/08 00:22 KDXR 080022Z 00000KT 3SM BR OVC003 19/19 A3010 RMK AO2 T01940194
 
KISP - Islip, New York, USA
Distance from station: E 52mi, 83km
Updated: 07/07/2020 7:56pm
Mist, Overcast
Mist, Overcast
 Wind from E
Wind: E 5 mph , 7 km/h
Temperature: 72°F , 22°C
Dew Point: 72°F , 22°C
Humidity: 100%
Barometer: 30.07 inHg , 1018.3 hPa
Summary: Mist
Clouds: Overcast
Visibility: 2 miles , 3 km
Cloud details: Overcast 300 ft
2020/07/07 23:56 KISP 072356Z 08004KT 2SM BR OVC003 22/22 A3007 RMK AO2 SLP182 60001 T02220222 10239 20217 57008
KBDR - Bridgeport, Connecticut, USA
Distance from station: ENE 54mi, 87km
Updated: 07/07/2020 8:03pm
Mist, Overcast
Mist, Overcast
 Wind from E
Wind: E 14 mph , 22 km/h
Temperature: 70°F , 21°C
Dew Point: 68°F , 20°C
Humidity: 94%
Barometer: 30.08 inHg , 1018.6 hPa
Summary: Mist
Clouds: Overcast
Visibility: 1 1/2 miles , 2.4 km
Cloud details: Overcast 400 ft
2020/07/08 00:03 KBDR 080003Z 08012KT 1 1/2SM BR OVC004 21/20 A3008 RMK AO2 T02110200
 
KTTN - Trenton, New Jersey, USA
Distance from station: SW 55mi, 88km
Updated: 07/07/2020 8:27pm
Light thunderstorm, Rain, Mist, Overcast
Light thunderstorm, Rain, Mist, Overcast
 Wind from SE
Wind: SE 5 mph , 7 km/h
Temperature: 77°F , 25°C
Dew Point: 75°F , 24°C
Humidity: 94%
Barometer: 30.02 inHg , 1016.6 hPa
Summary: Light thunderstorm, Rain, Mist
Clouds: Overcast
Visibility: 3 miles , 5 km
Cloud details: Few Clouds 2700 ft
Mostly cloudy 4400 ft
Overcast 9000 ft
2020/07/08 00:27 KTTN 080027Z 14004KT 3SM -TSRA BR FEW027 BKN044 OVC090 25/24 A3002 RMK AO2 TSB21 P0014 T02500239
KPOU - Poughkeepsie, New York, USA
Distance from station: N 55mi, 89km
Updated: 07/07/2020 7:53pm
Few Clouds
Few Clouds
 Wind from SE
Wind: SE 6 mph , 9 km/h
Temperature: 73°F , 23°C
Dew Point: 66°F , 19°C
Humidity: 78%
Barometer: 30.04 inHg , 1017.3 hPa
Clouds: Few Clouds
Visibility: 10 miles , 16 km
Cloud details: Few Clouds 1600 ft
2020/07/07 23:53 KPOU 072353Z AUTO 13005KT 10SM FEW016 23/19 A3004 RMK AO2 SLP168 T02330194 10278 20233 56005
 
KNEL - Lakehurst Nas, New Jersey, USA
Distance from station: SSW 59mi, 95km
Updated: 07/07/2020 8:00pm
Mostly cloudy
Mostly cloudy
 
Barometer: 30.03 inHg , 1016.9 hPa
Clouds: Mostly cloudy
Visibility: 10 miles , 16 km
Cloud details: Mostly cloudy 4700 ft
2020/07/08 00:00 KNEL 080000Z 10SM BKN047 A3003 RMK AO2 SLPNO 60000 55004 $
KWRI - Wrightst/Mcguire, New Jersey, USA
Distance from station: SSW 63mi, 102km
Updated: 07/07/2020 7:56pm
Clear
Clear
 Wind from S
Wind: S 5 mph , 7 km/h
Temperature: 79°F , 26°C
Dew Point: 72°F , 22°C
Humidity: 79%
Barometer: 30.03 inHg , 1016.9 hPa
Clouds: Clear
Visibility: 10 miles , 16 km
2020/07/07 23:56 KWRI 072356Z AUTO 18004KT 10SM CLR 26/22 A3003 RMK AO2 SLP168 T02630215 10303 20263 53001 $
 
KHWV - Shirley, New York, USA
Distance from station: E 64mi, 103km
Updated: 07/07/2020 7:56pm
Mist, Overcast
Mist, Overcast
 Wind from calm
Wind: Calm
Temperature: 72°F , 22°C
Dew Point: 70°F , 21°C
Humidity: 94%
Barometer: 30.08 inHg , 1018.6 hPa
Summary: Mist
Clouds: Overcast
Visibility: 4 miles , 6 km
Cloud details: Overcast 300 ft
2020/07/07 23:56 KHWV 072356Z AUTO 00000KT 4SM BR OVC003 22/21 A3008 RMK AO2 RAE05 SLP186 P0000 60002 T02220206 10233 20217 56007
KMJX - Toms River, New Jersey, USA
Distance from station: S 64mi, 104km
Updated: 07/07/2020 7:56pm
Overcast
Overcast
 Wind from SSE
Wind: SSE 12 mph , 19 km/h
Temperature: 79°F , 26°C
Dew Point: 70°F , 21°C
Humidity: 74%
Barometer: 30.04 inHg , 1017.3 hPa
Clouds: Overcast
Visibility: 10 miles , 16 km
Cloud details: Overcast 4900 ft
2020/07/07 23:56 KMJX 072356Z AUTO 16010KT 10SM OVC049 26/21 A3004 RMK AO2 SLP176 T02610211 10300 20261 55000
 
KDYL - Doylestown, Pennsylvania, USA
Distance from station: SW 65mi, 104km
Updated: 07/07/2020 7:54pm
Mostly cloudy
Mostly cloudy
 Wind from varies
Wind: varies 5 mph , 7 km/h
Temperature: 82°F , 28°C
Heat Index: 85°F , 29°C
Dew Point: 68°F , 20°C
Humidity: 62%
Barometer: 30.02 inHg , 1016.6 hPa
Clouds: Mostly cloudy
Visibility: 10 miles , 16 km
Cloud details: Mostly cloudy 6000 ft
2020/07/07 23:54 KDYL 072354Z AUTO VRB04KT 10SM BKN060 28/20 A3002 RMK AO2 SLP158 T02780200 10317 20278 55003
KOXC - Oxford/Waterbury, Connecticut, USA
Distance from station: NE 65mi, 105km
Updated: 07/07/2020 8:14pm
Fog, Overcast
Fog, Overcast
 Wind from SE
Wind: SE 3 mph , 6 km/h
Temperature: 66°F , 19°C
Dew Point: 66°F , 19°C
Humidity: 100%
Barometer: 30.12 inHg , 1020 hPa
Summary: Fog
Clouds: Overcast
Visibility: 1/2 mile , 0.8 km
Cloud details: Overcast 200 ft
2020/07/08 00:14 KOXC 080014Z 13003KT 1/2SM FG OVC002 19/19 A3012 RMK AO2
 
KMSV - Monticello, New York, USA
Distance from station: NNW 69mi, 111km
Updated: 07/07/2020 7:56pm
Partly cloudy
Partly cloudy
 Wind from SE
Wind: SE 9 mph , 15 km/h
Temperature: 73°F , 23°C
Dew Point: 70°F , 21°C
Humidity: 89%
Barometer: 30.09 inHg , 1019 hPa
Clouds: Partly cloudy
Visibility: 10 miles , 16 km
Cloud details: Few Clouds 2100 ft
Partly cloudy 6000 ft
Partly cloudy 8500 ft
2020/07/07 23:56 KMSV 072356Z AUTO 14008KT 10SM FEW021 SCT060 SCT085 23/21 A3009 RMK AO2 SLP181 T02330206 10261 20233 55000
KHVN - New Haven/Tweed, Connecticut, USA
Distance from station: ENE 70mi, 112km
Updated: 07/07/2020 8:27pm
Mist, Overcast
Mist, Overcast
 Wind from E
Wind: E 8 mph , 13 km/h
Temperature: 70°F , 21°C
Dew Point: 68°F , 20°C
Humidity: 94%
Barometer: 30.09 inHg , 1019 hPa
Summary: Mist
Clouds: Overcast
Visibility: 2 miles , 3 km
Cloud details: Overcast 500 ft
2020/07/08 00:27 KHVN 080027Z 10007KT 2SM BR OVC005 21/20 A3009 RMK AO2 T02110200
 
KMPO - Mt. Pocono, Pennsylvania, USA
Distance from station: WNW 70mi, 113km
Updated: 07/07/2020 7:53pm
Clear
Clear
 Wind from S
Wind: S 7 mph , 11 km/h
Temperature: 75°F , 24°C
Dew Point: 64°F , 18°C
Humidity: 69%
Barometer: 30.09 inHg , 1019 hPa
Clouds: Clear
Visibility: 10 miles , 16 km
2020/07/07 23:53 KMPO 072353Z AUTO 17006KT 10SM CLR 24/18 A3009 RMK AO2 SLP177 T02390183 10261 20233 56006
KPNE - Philadelphia/Ne, Pennsylvania, USA
Distance from station: SW 72mi, 116km
Updated: 07/07/2020 7:54pm
Light rain, Overcast
Light rain, Overcast
 Wind from S
Wind: S 5 mph , 7 km/h
Temperature: 79°F , 26°C
Dew Point: 75°F , 24°C
Humidity: 89%
Barometer: 30.03 inHg , 1016.9 hPa
Summary: Light rain
Clouds: Overcast
Visibility: 7 miles , 11 km
Cloud details: Partly cloudy 2500 ft
Mostly cloudy 4300 ft
Overcast 6500 ft
2020/07/07 23:54 KPNE 072354Z AUTO 18004KT 7SM -RA SCT025 BKN043 OVC065 26/24 A3003 RMK AO2 RAB04 SLP166 P0051 60051 T02560239 10311 20244 53002
 
KABE - Allentown, Pennsylvania, USA
Distance from station: W 73mi, 117km
Updated: 07/07/2020 7:51pm
Clear
Clear
 Wind from SW
Wind: SW 6 mph , 9 km/h
Temperature: 84°F , 29°C
Heat Index: 87°F , 31°C
Dew Point: 68°F , 20°C
Humidity: 58%
Barometer: 30.01 inHg , 1016.3 hPa
Clouds: Clear
Visibility: 10 miles , 16 km
2020/07/07 23:51 KABE 072351Z 22005KT 10SM CLR 29/20 A3001 RMK AO2 SLP161 T02890200 10306 20278 55005
KUKT - Quakertown Arp, Pennsylvania, USA
Distance from station: WSW 74mi, 119km
Updated: 07/07/2020 8:15pm
Clear
Clear
 Wind from calm
Wind: Calm
Temperature: 84°F , 29°C
Heat Index: 89°F , 32°C
Dew Point: 72°F , 22°C
Humidity: 66%
Barometer: 30.03 inHg , 1016.9 hPa
Clouds: Clear
Visibility: 10 miles , 16 km
2020/07/08 00:15 KUKT 080015Z AUTO 00000KT 10SM CLR 29/22 A3003 RMK A01
 
KVAY - Mount Holly, New Jersey, USA
Distance from station: SSW 75mi, 120km
Updated: 07/07/2020 7:54pm
Clear
Clear
 Wind from SSE
Wind: SSE 5 mph , 7 km/h
Temperature: 82°F , 28°C
Heat Index: 84°F , 29°C
Dew Point: 64°F , 18°C
Humidity: 55%
Barometer: 30.02 inHg , 1016.6 hPa
Clouds: Clear
Visibility: 10 miles , 16 km
2020/07/07 23:54 KVAY 072354Z AUTO 16004KT 10SM CLR 28/18 A3002 RMK AO2 SLP165 T02780183 10317 20278 53003
KXLL - Allentown Queen, Pennsylvania, USA
Distance from station: WSW 76mi, 122km
Updated: 07/07/2020 8:15pm
Clear
Clear
 Wind from SW
Wind: SW 5 mph , 7 km/h
Temperature: 81°F , 27°C
Heat Index: 85°F , 29°C
Dew Point: 70°F , 21°C
Humidity: 70%
Barometer: 30.02 inHg , 1016.6 hPa
Clouds: Clear
Visibility: 10 miles , 16 km
2020/07/08 00:15 KXLL 080015Z AUTO 22004KT 10SM CLR 27/21 A3002 RMK AO2
 
KFOK - Westhampton Beac, New York, USA
Distance from station: E 77mi, 124km
Updated: 07/07/2020 7:53pm
Overcast
Overcast
 Wind from SE
Wind: SE 8 mph , 13 km/h
Temperature: 72°F , 22°C
Dew Point: 70°F , 21°C
Humidity: 94%
Barometer: 30.10 inHg , 1019.3 hPa
Clouds: Overcast
Visibility: 10 miles , 16 km
Cloud details: Overcast 500 ft
2020/07/07 23:53 KFOK 072353Z 13007KT 10SM OVC005 22/21 A3010 RMK AO2 RAB2256E18 SLP192 P0001 60001 T02170206 10222 20206 58006
KLOM - Philly Wings F, Pennsylvania, USA
Distance from station: SW 79mi, 128km
Updated: 07/07/2020 8:15pm
Clear
Clear
 Wind from SSE
Wind: SSE 5 mph , 7 km/h
Temperature: 81°F , 27°C
Heat Index: 85°F , 29°C
Dew Point: 72°F , 22°C
Humidity: 74%
Barometer: 30.03 inHg , 1016.9 hPa
Clouds: Clear
Visibility: 10 miles , 16 km
2020/07/08 00:15 KLOM 080015Z AUTO 16004KT 10SM CLR 27/22 A3003 RMK AO2 T02670224
 
KMMK - Meriden, Connecticut, USA
Distance from station: NE 80mi, 128km
Updated: 07/07/2020 8:03pm
Overcast
Overcast
 Wind from SE
Wind: SE 6 mph , 9 km/h
Temperature: 68°F , 20°C
Dew Point: 64°F , 18°C
Humidity: 88%
Barometer: 30.09 inHg , 1019 hPa
Clouds: Overcast
Visibility: 10 miles , 16 km
Cloud details: Overcast 900 ft
2020/07/08 00:03 KMMK 080003Z AUTO 14005KT 10SM OVC009 20/18 A3009 RMK AO2 T02000178
KPTW - Pottstown, Pennsylvania, USA
Distance from station: WSW 88mi, 141km
Updated: 07/07/2020 7:54pm
Mostly cloudy
Mostly cloudy
 Wind from SW
Wind: SW 3 mph , 6 km/h
Temperature: 82°F , 28°C
Heat Index: 86°F , 30°C
Dew Point: 70°F , 21°C
Humidity: 66%
Barometer: 30.03 inHg , 1016.9 hPa
Clouds: Mostly cloudy
Visibility: 8 miles , 13 km
Cloud details: Mostly cloudy 3700 ft
2020/07/07 23:54 KPTW 072354Z AUTO 22003KT 8SM BKN037 28/21 A3003 RMK AO2 SLP164 T02780211 10294 20278 $
 
KSNC - Chester, Connecticut, USA
Distance from station: ENE 90mi, 146km
Updated: 07/07/2020 7:35pm
Mist, Overcast
Mist, Overcast
 Wind from ESE
Wind: ESE 3 mph , 6 km/h
Temperature: 66°F , 19°C
Dew Point: 66°F , 19°C
Humidity: 100%
Barometer: 30.12 inHg , 1020 hPa
Summary: Mist
Clouds: Overcast
Visibility: 1 mile , 2 km
Cloud details: Overcast 100 ft
2020/07/07 23:35 KSNC 072335Z AUTO 11003KT 1SM BR OVC001 19/19 A3012 RMK AO2
KPHL - Philadelphia, Pennsylvania, USA
Distance from station: SW 91mi, 146km
Updated: 07/07/2020 7:54pm
Partly cloudy
Partly cloudy
 Wind from SSW
Wind: SSW 9 mph , 15 km/h
Temperature: 82°F , 28°C
Heat Index: 86°F , 30°C
Dew Point: 72°F , 22°C
Humidity: 70%
Barometer: 30.01 inHg , 1016.3 hPa
Clouds: Partly cloudy
Visibility: 10 miles , 16 km
Cloud details: Few Clouds 5000 ft
Few Clouds 15000 ft
Partly cloudy 25000 ft
2020/07/07 23:54 KPHL 072354Z 20008KT 10SM FEW050 FEW150 SCT250 28/22 A3001 RMK AO2 SLP163 T02830217 10311 20283 53002
 
KAVP - Avoca/Wilkes B., Pennsylvania, USA
Distance from station: WNW 91mi, 147km
Updated: 07/07/2020 7:54pm
Partly cloudy
Partly cloudy
 Wind from SW
Wind: SW 6 mph , 9 km/h
Temperature: 82°F , 28°C
Heat Index: 84°F , 29°C
Dew Point: 66°F , 19°C
Humidity: 58%
Barometer: 30.03 inHg , 1016.9 hPa
Clouds: Partly cloudy
Visibility: 10 miles , 16 km
Cloud details: Partly cloudy 3400 ft
2020/07/07 23:54 KAVP 072354Z 22005KT 10SM SCT034 28/19 A3003 RMK AO2 SLP158 T02780194 10306 20261 55003
KHFD - Hartford/Brainar, Connecticut, USA
Distance from station: NE 96mi, 155km
Updated: 07/07/2020 7:53pm
Overcast
Overcast
 Wind from SSE
Wind: SSE 7 mph , 11 km/h
Temperature: 70°F , 21°C
Dew Point: 64°F , 18°C
Humidity: 83%
Barometer: 30.09 inHg , 1019 hPa
Clouds: Overcast
Visibility: 10 miles , 16 km
Cloud details: Overcast 1400 ft
2020/07/07 23:53 KHFD 072353Z 16006KT 10SM OVC014 21/18 A3009 RMK AO2 SLP189 T02110178 10239 20211 56002
 
KHTO - East Hampton, New York, USA
Distance from station: E 96mi, 155km
Updated: 07/07/2020 8:15pm
Overcast
Overcast
 Wind from E
Wind: E 3 mph , 6 km/h
Temperature: 70°F , 21°C
Dew Point: 68°F , 20°C
Humidity: 94%
Barometer: 30.10 inHg , 1019.3 hPa
Clouds: Overcast
Visibility: 10 miles , 16 km
Cloud details: Overcast 500 ft
2020/07/08 00:15 KHTO 080015Z AUTO 10003KT 10SM OVC005 21/20 A3010 RMK AO2 T02050198
KACY - Atlantic City, New Jersey, USA
Distance from station: SSW 99mi, 160km
Updated: 07/07/2020 7:54pm
Mostly cloudy
Mostly cloudy
 Wind from S
Wind: S 8 mph , 13 km/h
Temperature: 79°F , 26°C
Dew Point: 73°F , 23°C
Humidity: 84%
Barometer: 30.04 inHg , 1017.3 hPa
Clouds: Mostly cloudy
Visibility: 10 miles , 16 km
Cloud details: Mostly cloudy 1200 ft
Mostly cloudy 5500 ft
2020/07/07 23:54 KACY 072354Z AUTO 17007KT 10SM BKN012 BKN055 26/23 A3004 RMK AO2 SLP171 T02610228 10300 20261 56003 TSNO